Terminal Aerodrome Forecast
Issued by NWS

Home | Current Version | Previous Version | Text Only | Print | Product List | Glossary On
Versions: 1 2 3 4 5 6 7 8 9 10 11 12 13 14 15 16 17 18 19 20
000
FTUS42 KTBW 270146 AAB
TAFPIE
TAF AMD
KPIE 270146Z 2702/2724 VRB12G22KT P6SM VCTS BKN015CB BKN020 BKN060
     FM270215 10012KT P6SM SCT040 SCT250
     FM270600 10006KT P6SM SCT250
     FM271800 20007KT P6SM VCTS FEW025CB SCT060 BKN250
     FM272300 34007KT P6SM SCT050 BKN250=

USA.gov is the U.S. government's official web portal to all federal, state and local government web resources and services.